createdAt,value
2022-12-18T00:02:03.155Z,9.63
2022-12-18T00:05:08.153Z,14.30
2022-12-18T00:08:11.797Z,10.10
2022-12-18T00:11:21.244Z,10.80
2022-12-18T00:14:26.052Z,11.13
2022-12-18T00:17:29.013Z,12.83
2022-12-18T00:20:32.226Z,13.23
2022-12-18T00:23:37.398Z,13.38
2022-12-18T00:26:41.351Z,15.40
2022-12-18T00:29:45.054Z,12.23
2022-12-18T00:32:48.143Z,8.50
2022-12-18T00:35:51.173Z,18.85
2022-12-18T00:38:58.728Z,10.15
2022-12-18T00:42:20.349Z,13.00
2022-12-18T00:45:29.721Z,13.65
2022-12-18T00:48:33.694Z,15.20
2022-12-18T00:51:37.560Z,14.40
2022-12-18T00:54:41.027Z,14.88
2022-12-18T00:57:44.848Z,14.83
2022-12-18T01:00:48.809Z,22.33
2022-12-18T01:03:52.200Z,17.02
2022-12-18T01:06:57.479Z,19.10
2022-12-18T01:10:00.895Z,18.67
2022-12-18T01:13:04.269Z,15.48
2022-12-18T01:16:07.761Z,21.05
2022-12-18T01:19:11.693Z,17.20
2022-12-18T01:22:14.787Z,19.92
2022-12-18T01:25:18.579Z,21.88
2022-12-18T01:28:21.598Z,16.10
2022-12-18T01:31:31.062Z,17.23
2022-12-18T01:34:36.225Z,19.05
2022-12-18T01:37:40.336Z,16.55
2022-12-18T01:40:44.574Z,21.73
2022-12-18T01:43:58.952Z,19.38
2022-12-18T01:47:02.950Z,19.63
2022-12-18T01:50:32.475Z,15.47
2022-12-18T01:53:35.894Z,15.25
2022-12-18T01:56:39.486Z,16.27
2022-12-18T01:59:47.519Z,17.87
2022-12-18T02:02:51.471Z,15.75
2022-12-18T02:06:14.474Z,23.58
2022-12-18T02:09:27.300Z,19.30
2022-12-18T02:13:04.918Z,26.20
2022-12-18T02:16:40.738Z,26.20
2022-12-18T02:20:00.901Z,26.23
2022-12-18T02:23:28.736Z,27.90
2022-12-18T02:26:40.193Z,23.13
2022-12-18T02:29:58.596Z,22.27
2022-12-18T02:33:08.543Z,20.03
2022-12-18T02:36:13.561Z,24.58
2022-12-18T02:39:19.983Z,30.30
2022-12-18T02:42:34.372Z,32.13
2022-12-18T02:45:55.904Z,20.95
2022-12-18T02:49:08.536Z,18.67
2022-12-18T02:52:35.939Z,22.35
2022-12-18T02:56:00.910Z,21.97
2022-12-18T02:59:15.436Z,16.67
2022-12-18T03:02:28.332Z,14.18
2022-12-18T03:05:58.288Z,21.60
2022-12-18T03:09:08.173Z,10.05
2022-12-18T03:12:24.268Z,13.38
2022-12-18T03:15:36.529Z,18.15
2022-12-18T03:18:49.265Z,20.60
2022-12-18T03:21:57.478Z,20.15
2022-12-18T03:25:05.736Z,24.50
2022-12-18T03:28:13.908Z,30.67
2022-12-18T03:31:19.313Z,38.22
2022-12-18T03:34:31.460Z,31.05
2022-12-18T03:37:38.968Z,35.90
2022-12-18T03:40:46.890Z,46.03
2022-12-18T03:43:54.074Z,43.47
2022-12-18T03:47:12.245Z,41.22
2022-12-18T03:50:24.680Z,39.53
2022-12-18T03:53:45.860Z,49.25
2022-12-18T03:56:55.950Z,43.83
2022-12-18T04:00:06.225Z,44.53
2022-12-18T04:03:22.695Z,39.55
2022-12-18T04:06:32.046Z,43.10
2022-12-18T04:09:40.586Z,37.73
2022-12-18T04:12:45.915Z,29.38
2022-12-18T04:15:51.077Z,31.45
2022-12-18T04:18:56.528Z,29.00
2022-12-18T04:22:01.649Z,24.45
2022-12-18T04:25:08.671Z,25.67
2022-12-18T04:28:15.871Z,23.15
2022-12-18T04:31:20.056Z,21.10
2022-12-18T04:34:24.061Z,21.48
2022-12-18T04:37:30.313Z,15.75
2022-12-18T04:40:33.565Z,18.43
2022-12-18T04:43:41.779Z,25.13
2022-12-18T04:46:45.701Z,25.58
2022-12-18T04:49:49.158Z,19.20
2022-12-18T04:52:52.294Z,22.50
2022-12-18T04:56:24.833Z,18.48
2022-12-18T04:59:27.919Z,22.13
2022-12-18T05:02:31.168Z,21.77
2022-12-18T05:05:36.874Z,23.52
2022-12-18T05:08:40.546Z,20.58
2022-12-18T05:11:44.873Z,19.10
2022-12-18T05:14:50.726Z,22.55
2022-12-18T05:17:54.476Z,23.83
2022-12-18T05:20:58.727Z,17.75
2022-12-18T05:24:02.081Z,25.60
2022-12-18T05:27:05.863Z,26.08
2022-12-18T05:30:10.079Z,25.77
2022-12-18T05:33:13.767Z,30.40
2022-12-18T05:36:16.934Z,41.43
2022-12-18T05:39:20.431Z,31.95
2022-12-18T05:42:25.286Z,23.98
2022-12-18T05:45:29.235Z,28.77
2022-12-18T05:48:32.999Z,27.83
2022-12-18T05:51:36.997Z,25.83
2022-12-18T05:54:41.180Z,30.75
2022-12-18T05:57:45.190Z,32.47
2022-12-18T06:00:49.045Z,30.75
2022-12-18T06:03:52.253Z,30.65
2022-12-18T06:06:56.308Z,31.75
2022-12-18T06:10:00.508Z,26.95
2022-12-18T06:13:04.572Z,28.08
2022-12-18T06:16:09.905Z,33.35
2022-12-18T06:19:17.398Z,26.30
2022-12-18T06:22:21.493Z,26.63
2022-12-18T06:25:25.307Z,33.25
2022-12-18T06:28:29.022Z,33.00
2022-12-18T06:31:32.746Z,29.80
2022-12-18T06:34:38.918Z,28.33
2022-12-18T06:37:42.338Z,23.23
2022-12-18T06:40:46.556Z,20.23
2022-12-18T06:43:51.666Z,36.15
2022-12-18T06:46:57.330Z,26.95
2022-12-18T06:50:00.414Z,28.57
2022-12-18T06:53:03.858Z,21.13
2022-12-18T06:56:10.695Z,25.23
2022-12-18T06:59:16.396Z,24.30
2022-12-18T07:02:20.372Z,25.70
2022-12-18T07:05:24.817Z,30.70
2022-12-18T07:08:30.236Z,29.05
2022-12-18T07:11:35.360Z,31.38
2022-12-18T07:14:38.503Z,22.92
2022-12-18T07:17:42.281Z,25.65
2022-12-18T07:20:45.932Z,26.37
2022-12-18T07:23:52.125Z,29.35
2022-12-18T07:26:55.112Z,30.83
2022-12-18T07:29:59.079Z,32.17
2022-12-18T07:33:02.247Z,33.53
2022-12-18T07:36:08.504Z,31.17
2022-12-18T07:39:14.135Z,35.15
2022-12-18T07:42:33.247Z,36.50
2022-12-18T07:45:36.375Z,33.17
2022-12-18T07:48:40.418Z,29.42
2022-12-18T07:51:44.038Z,30.70
2022-12-18T07:54:50.860Z,28.83
2022-12-18T07:57:57.775Z,35.37
2022-12-18T08:01:10.276Z,37.55
2022-12-18T08:04:14.698Z,33.83
2022-12-18T08:07:18.066Z,30.58
2022-12-18T08:10:22.099Z,27.83
2022-12-18T08:13:25.966Z,26.88
2022-12-18T08:16:29.942Z,29.77
2022-12-18T08:19:34.272Z,28.70
2022-12-18T08:22:39.574Z,27.43
2022-12-18T08:25:42.848Z,29.35
2022-12-18T08:28:45.953Z,30.15
2022-12-18T08:31:49.655Z,30.20
2022-12-18T08:34:53.432Z,31.38
2022-12-18T08:37:57.464Z,34.88
2022-12-18T08:41:02.053Z,23.20
2022-12-18T08:44:24.230Z,27.53
2022-12-18T08:47:27.642Z,32.17
2022-12-18T08:50:31.659Z,30.25
2022-12-18T08:53:36.185Z,32.77
2022-12-18T08:56:40.065Z,31.38
2022-12-18T08:59:43.397Z,35.00
2022-12-18T09:02:46.739Z,32.83
2022-12-18T09:05:50.477Z,36.13
2022-12-18T09:08:53.538Z,35.22
2022-12-18T09:11:56.903Z,40.25
2022-12-18T09:15:00.636Z,24.60
2022-12-18T09:18:04.691Z,40.55
2022-12-18T09:21:13.581Z,51.72
2022-12-18T09:24:18.232Z,35.37
2022-12-18T09:27:21.977Z,37.47
2022-12-18T09:30:26.094Z,41.38
2022-12-18T09:33:29.615Z,49.35
2022-12-18T09:36:32.657Z,55.00
2022-12-18T09:39:35.694Z,44.67
2022-12-18T09:42:38.977Z,42.92
2022-12-18T09:45:49.436Z,42.20
2022-12-18T09:48:54.306Z,46.63
2022-12-18T09:52:19.444Z,40.47
2022-12-18T09:55:41.441Z,45.05
2022-12-18T09:58:59.056Z,56.42
2022-12-18T10:02:18.104Z,51.17
2022-12-18T10:05:53.782Z,46.85
2022-12-18T10:09:11.841Z,55.30
2022-12-18T10:12:41.332Z,51.25
2022-12-18T10:15:47.031Z,52.75
2022-12-18T10:18:58.731Z,66.70
2022-12-18T10:22:19.735Z,60.97
2022-12-18T10:25:51.118Z,64.80
2022-12-18T10:28:57.692Z,55.35
2022-12-18T10:32:04.181Z,70.72
2022-12-18T10:35:22.775Z,46.47
2022-12-18T10:38:27.846Z,54.55
2022-12-18T10:41:32.472Z,92.60
2022-12-18T10:44:36.401Z,81.20
2022-12-18T10:47:48.250Z,74.10
2022-12-18T10:54:19.418Z,71.40
2022-12-18T10:57:43.084Z,78.50
2022-12-18T11:00:46.830Z,64.60
2022-12-18T11:04:01.841Z,72.90
2022-12-18T11:07:08.835Z,62.53
2022-12-18T11:10:19.619Z,59.03
2022-12-18T11:13:26.323Z,52.83
2022-12-18T11:16:32.380Z,45.58
2022-12-18T11:19:39.726Z,50.38
2022-12-18T11:22:42.899Z,65.00
2022-12-18T11:25:58.560Z,52.53
2022-12-18T11:29:18.696Z,46.97
2022-12-18T11:32:33.422Z,63.08
2022-12-18T11:35:53.848Z,139.00
2022-12-18T11:38:59.674Z,92.55
2022-12-18T11:42:45.997Z,93.97
2022-12-18T11:45:57.099Z,67.60
2022-12-18T11:49:06.350Z,113.78
2022-12-18T11:52:21.836Z,98.93
2022-12-18T11:55:37.745Z,123.45
2022-12-18T11:58:53.275Z,101.18
2022-12-18T12:02:17.112Z,87.38
2022-12-18T12:05:31.415Z,97.78
2022-12-18T12:09:11.526Z,61.47
2022-12-18T12:12:26.741Z,74.75
2022-12-18T12:16:08.356Z,59.53
2022-12-18T12:19:32.782Z,46.13
2022-12-18T12:22:42.754Z,80.20
2022-12-18T12:25:50.080Z,53.50
2022-12-18T12:29:09.230Z,73.38
2022-12-18T12:32:35.550Z,86.65
2022-12-18T12:36:15.011Z,78.75
2022-12-18T12:39:24.437Z,42.92
2022-12-18T12:42:45.615Z,53.27
2022-12-18T12:45:55.198Z,68.07
2022-12-18T12:49:03.126Z,39.08
2022-12-18T12:52:13.334Z,56.53
2022-12-18T12:55:35.852Z,64.63
2022-12-18T12:58:48.546Z,40.30
2022-12-18T13:02:01.059Z,68.75
2022-12-18T13:05:23.099Z,59.22
2022-12-18T13:08:35.446Z,53.20
2022-12-18T13:12:02.878Z,92.35
2022-12-18T13:15:25.031Z,61.73
2022-12-18T13:18:30.570Z,70.18
2022-12-18T13:21:37.046Z,54.33
2022-12-18T13:24:41.012Z,50.00
2022-12-18T13:27:45.242Z,48.83
2022-12-18T13:30:51.729Z,47.97
2022-12-18T13:34:31.157Z,61.65
2022-12-18T13:37:43.960Z,40.00
2022-12-18T13:40:50.172Z,72.32
2022-12-18T13:44:13.666Z,90.50
2022-12-18T13:47:39.530Z,33.33
2022-12-18T13:50:43.000Z,36.67
2022-12-18T13:53:53.166Z,31.50
2022-12-18T13:56:57.281Z,42.97
2022-12-18T14:00:18.424Z,39.63
2022-12-18T14:03:30.540Z,50.17
2022-12-18T14:06:34.621Z,43.33
2022-12-18T14:09:48.453Z,34.87
2022-12-18T14:13:01.009Z,47.35
2022-12-18T14:16:09.514Z,32.47
2022-12-18T14:19:17.402Z,34.80
2022-12-18T14:22:22.711Z,38.30
2022-12-18T14:25:28.148Z,52.13
2022-12-18T14:28:32.972Z,70.25
2022-12-18T14:31:35.970Z,59.38
2022-12-18T14:34:39.909Z,40.45
2022-12-18T14:37:43.585Z,83.22
2022-12-18T14:40:46.523Z,72.63
2022-12-18T14:43:52.036Z,78.43
2022-12-18T14:46:55.789Z,64.15
2022-12-18T14:49:59.878Z,71.77
2022-12-18T14:53:03.686Z,84.47
2022-12-18T14:56:19.726Z,56.25
2022-12-18T14:59:26.487Z,60.80
2022-12-18T15:02:31.059Z,42.28
2022-12-18T15:05:34.825Z,60.38
2022-12-18T15:08:38.998Z,50.47
2022-12-18T15:11:41.846Z,43.10
2022-12-18T15:14:45.664Z,49.83
2022-12-18T15:17:48.928Z,64.85
2022-12-18T15:20:58.511Z,43.50
2022-12-18T15:24:02.096Z,40.97
2022-12-18T15:27:05.246Z,36.33
2022-12-18T15:30:11.793Z,37.42
2022-12-18T15:33:26.262Z,29.67
2022-12-18T15:36:31.569Z,36.92
2022-12-18T15:39:34.678Z,27.10
2022-12-18T15:42:56.619Z,28.37
2022-12-18T15:45:59.775Z,26.73
2022-12-18T15:49:04.880Z,35.72
2022-12-18T15:52:13.190Z,46.60
2022-12-18T15:55:40.260Z,43.95
2022-12-18T15:58:44.675Z,30.67
2022-12-18T16:01:51.687Z,33.80
2022-12-18T16:04:55.716Z,35.05
2022-12-18T16:08:00.224Z,36.75
2022-12-18T16:11:04.172Z,53.75
2022-12-18T16:14:12.672Z,36.73
2022-12-18T16:17:16.878Z,36.75
2022-12-18T16:20:24.276Z,36.70
2022-12-18T16:23:29.066Z,40.37
2022-12-18T16:26:32.722Z,53.60
2022-12-18T16:29:36.672Z,46.05
2022-12-18T16:32:40.037Z,59.45
2022-12-18T16:35:43.886Z,53.15
2022-12-18T16:38:47.317Z,45.45
2022-12-18T16:41:51.406Z,68.93
2022-12-18T16:44:55.005Z,61.50
2022-12-18T16:47:58.636Z,47.83
2022-12-18T16:51:04.225Z,40.35
2022-12-18T16:54:10.914Z,47.87
2022-12-18T16:57:19.105Z,38.00
2022-12-18T17:00:22.180Z,48.60
2022-12-18T17:03:26.368Z,34.65
2022-12-18T17:06:33.444Z,38.65
2022-12-18T17:09:37.305Z,48.20
2022-12-18T17:12:40.636Z,39.95
2022-12-18T17:15:44.302Z,39.63
2022-12-18T17:18:48.024Z,37.08
2022-12-18T17:21:52.453Z,45.35
2022-12-18T17:24:55.741Z,75.37
2022-12-18T17:27:58.785Z,61.63
2022-12-18T17:31:02.857Z,40.65
2022-12-18T17:34:06.057Z,40.33
2022-12-18T17:37:10.160Z,48.30
2022-12-18T17:40:13.955Z,44.33
2022-12-18T17:43:17.099Z,43.80
2022-12-18T17:46:20.642Z,35.10
2022-12-18T17:49:24.785Z,38.92
2022-12-18T17:52:28.177Z,38.13
2022-12-18T17:55:32.376Z,34.90
2022-12-18T17:58:40.162Z,39.00
2022-12-18T18:01:45.455Z,57.33
2022-12-18T18:04:49.349Z,44.33
2022-12-18T18:07:52.316Z,58.10
2022-12-18T18:11:17.103Z,45.70
2022-12-18T18:14:21.877Z,32.67
2022-12-18T18:17:25.437Z,33.60
2022-12-18T18:20:30.952Z,40.65
2022-12-18T18:23:35.486Z,30.15
2022-12-18T18:26:39.671Z,34.00
2022-12-18T18:29:42.966Z,35.17
2022-12-18T18:32:45.890Z,44.15
2022-12-18T18:35:56.293Z,29.83
2022-12-18T18:39:01.150Z,28.73
2022-12-18T18:42:05.052Z,31.52
2022-12-18T18:45:09.313Z,42.95
2022-12-18T18:48:14.946Z,38.53
2022-12-18T18:51:21.154Z,40.92
2022-12-18T18:54:26.366Z,47.95
2022-12-18T18:57:30.707Z,36.80
2022-12-18T19:00:34.816Z,32.33
2022-12-18T19:03:39.417Z,29.02
2022-12-18T19:06:43.681Z,28.80
2022-12-18T19:09:52.438Z,24.88
2022-12-18T19:13:13.879Z,24.88
2022-12-18T19:16:19.557Z,39.75
2022-12-18T19:19:22.944Z,27.70
2022-12-18T19:22:26.107Z,40.58
2022-12-18T19:25:40.547Z,24.67
2022-12-18T19:28:45.822Z,29.17
2022-12-18T19:31:50.526Z,28.77
2022-12-18T19:34:54.532Z,36.30
2022-12-18T19:37:57.973Z,24.45
2022-12-18T19:41:04.665Z,23.20
2022-12-18T19:44:09.005Z,18.85
2022-12-18T19:47:13.278Z,25.27
2022-12-18T19:50:16.903Z,30.70
2022-12-18T19:53:20.325Z,22.83
2022-12-18T19:56:26.736Z,34.17
2022-12-18T19:59:29.906Z,23.80
2022-12-18T20:02:37.333Z,21.67
2022-12-18T20:05:40.470Z,25.40
